Time;durP1;ratioP1;P1;durP2;ratioP2;P2;SDS_P1;SDS_P2;PMS_P1;PMS_P2;Temp;Humidity;BMP_temperature;BMP_pressure;BME280_temperature;BME280_humidity;BME280_pressure;Samples;Min_cycle;Max_cycle;Signal;HPM_P1;HPM_P2
2022/08/29 00:01:16;;;;;;;4.15;3.72;;;23.30;99.90;;;;;;10574476;28;20224;-84
2022/08/29 00:06:19;;;;;;;3.45;3.15;;;23.30;99.90;;;;;;10575791;28;20606;-84
2022/08/29 00:11:22;;;;;;;4.28;3.92;;;23.30;99.90;;;;;;10548220;28;20205;-84
2022/08/29 00:16:24;;;;;;;3.70;3.40;;;23.30;99.90;;;;;;10536112;28;20276;-84
2022/08/29 00:21:27;;;;;;;3.67;3.38;;;23.10;99.90;;;;;;10564138;28;20193;-84
2022/08/29 00:26:30;;;;;;;4.32;3.90;;;23.20;99.90;;;;;;10565482;28;20266;-84
2022/08/29 00:31:32;;;;;;;3.80;3.40;;;23.20;99.90;;;;;;10593283;27;20689;-84
2022/08/29 00:36:36;;;;;;;8.45;4.78;;;23.20;99.90;;;;;;10624207;27;20228;-84
2022/08/29 00:41:38;;;;;;;3.92;3.58;;;23.20;99.90;;;;;;10624348;27;20273;-84
2022/08/29 00:46:41;;;;;;;4.18;3.78;;;23.20;99.90;;;;;;10582336;28;20238;-84
2022/08/29 00:51:46;;;;;;;4.10;3.47;;;23.20;99.90;;;;;;10581075;28;20277;-84
2022/08/29 00:56:49;;;;;;;3.63;3.33;;;23.20;99.90;;;;;;10582063;28;20278;-84
2022/08/29 01:01:52;;;;;;;3.03;2.83;;;23.20;99.90;;;;;;10580305;28;20201;-84
2022/08/29 01:06:56;;;;;;;4.05;3.75;;;23.20;99.90;;;;;;10581443;28;20230;-84
2022/08/29 01:12:17;;;;;;;3.65;3.35;;;23.10;99.90;;;;;;10616359;27;20261;-84
2022/08/29 01:17:32;;;;;;;4.22;3.55;;;23.10;99.90;;;;;;10619833;27;20241;-84
2022/08/29 01:23:10;;;;;;;4.53;4.13;;;23.00;99.90;;;;;;10589490;27;20180;-84
2022/08/29 01:28:15;;;;;;;4.00;3.58;;;23.10;99.90;;;;;;10579756;28;20226;-84
2022/08/29 01:33:18;;;;;;;3.53;3.22;;;23.10;99.90;;;;;;10580549;28;20229;-83
2022/08/29 01:38:26;;;;;;;4.05;3.75;;;23.10;99.90;;;;;;10591361;27;20308;-84
2022/08/29 01:43:30;;;;;;;3.83;3.40;;;23.10;99.90;;;;;;10621827;27;20204;-84
2022/08/29 01:48:34;;;;;;;4.53;4.10;;;23.00;99.90;;;;;;10610678;27;20238;-84
2022/08/29 01:53:37;;;;;;;4.57;4.18;;;23.00;99.90;;;;;;10580756;28;20201;-84
2022/08/29 01:58:40;;;;;;;3.97;3.63;;;22.90;99.90;;;;;;10578015;28;20645;-84
2022/08/29 02:03:44;;;;;;;4.10;3.80;;;22.90;99.90;;;;;;10577156;28;20580;-84
2022/08/29 02:08:46;;;;;;;4.13;3.75;;;22.90;99.90;;;;;;10578891;28;20277;-84
2022/08/29 02:13:54;;;;;;;3.63;3.33;;;23.00;99.90;;;;;;10578270;28;20258;-84
2022/08/29 02:18:57;;;;;;;4.15;3.75;;;23.10;99.90;;;;;;10574601;28;20225;-84
2022/08/29 02:24:03;;;;;;;4.30;3.90;;;23.10;99.90;;;;;;10558425;28;20287;-83
2022/08/29 02:29:26;;;;;;;4.60;4.03;;;23.10;99.90;;;;;;10537262;28;20610;-84
2022/08/29 02:34:43;;;;;;;6.18;3.78;;;23.10;99.90;;;;;;10563598;28;20260;-84
2022/08/29 02:39:49;;;;;;;4.47;4.07;;;23.10;99.90;;;;;;10577284;28;20245;-84
2022/08/29 02:44:52;;;;;;;4.57;4.07;;;23.10;99.90;;;;;;10603633;27;20196;-84
2022/08/29 02:49:54;;;;;;;4.07;3.78;;;23.00;99.90;;;;;;10579692;27;20209;-83
2022/08/29 02:54:57;;;;;;;3.80;3.50;;;23.10;99.90;;;;;;10577991;28;20217;-84
2022/08/29 02:59:59;;;;;;;4.25;3.85;;;23.00;99.90;;;;;;10605258;27;20192;-83
2022/08/29 03:05:02;;;;;;;3.88;3.58;;;23.00;99.90;;;;;;10607439;27;20668;-83
2022/08/29 03:10:06;;;;;;;4.75;4.32;;;22.90;99.90;;;;;;10624692;27;20196;-83
2022/08/29 03:15:09;;;;;;;4.00;3.60;;;22.90;99.90;;;;;;10618918;27;20595;-84
2022/08/29 03:20:14;;;;;;;4.25;3.85;;;22.90;99.90;;;;;;10577493;28;20266;-84
2022/08/29 03:25:17;;;;;;;4.80;3.95;;;23.00;99.90;;;;;;10579150;28;20201;-83
2022/08/29 03:30:20;;;;;;;4.65;3.90;;;22.90;99.90;;;;;;10578867;28;20614;-84
2022/08/29 03:35:25;;;;;;;4.35;3.95;;;22.90;99.90;;;;;;10612905;28;20228;-83
2022/08/29 03:40:27;;;;;;;4.22;3.83;;;22.90;99.90;;;;;;10620050;28;20188;-83
2022/08/29 03:45:30;;;;;;;3.45;3.15;;;22.90;99.90;;;;;;10616049;28;20218;-84
2022/08/29 03:50:32;;;;;;;5.47;4.15;;;22.70;99.90;;;;;;10580833;28;20261;-83
2022/08/29 03:55:35;;;;;;;4.40;3.78;;;22.90;99.90;;;;;;10624805;27;20215;-83
2022/08/29 04:00:38;;;;;;;3.97;3.63;;;22.90;99.90;;;;;;10590894;27;20197;-83
2022/08/29 04:05:40;;;;;;;3.58;3.33;;;22.90;99.90;;;;;;10588884;28;20201;-84
2022/08/29 04:10:42;;;;;;;4.15;3.75;;;22.90;99.90;;;;;;10589624;28;20549;-84
2022/08/29 04:15:45;;;;;;;4.00;3.33;;;22.90;99.90;;;;;;10586573;28;20217;-83
2022/08/29 04:20:48;;;;;;;4.15;3.72;;;22.80;99.90;;;;;;10626195;27;20269;-84
2022/08/29 04:25:50;;;;;;;3.72;3.38;;;22.60;99.90;;;;;;10585574;27;20201;-85
2022/08/29 04:31:18;;;;;;;5.93;4.50;;;22.60;99.90;;;;;;10581420;28;20208;-87
2022/08/29 04:36:21;;;;;;;8.75;4.03;;;22.70;99.90;;;;;;10586549;27;20634;-85
2022/08/29 04:41:24;;;;;;;3.97;3.65;;;22.70;99.90;;;;;;10620686;27;20196;-85
2022/08/29 04:46:28;;;;;;;3.88;3.45;;;22.90;99.90;;;;;;10582134;28;20239;-85
2022/08/29 04:51:33;;;;;;;4.80;3.78;;;22.80;99.90;;;;;;10580590;28;20629;-85
2022/08/29 04:56:37;;;;;;;4.95;3.33;;;22.60;99.90;;;;;;10584170;27;20312;-84
2022/08/29 05:01:43;;;;;;;3.85;3.50;;;22.70;99.90;;;;;;10580832;28;20673;-84
2022/08/29 05:06:45;;;;;;;3.83;3.53;;;22.70;99.90;;;;;;10580974;28;20278;-84
2022/08/29 05:11:48;;;;;;;5.53;3.58;;;22.80;99.90;;;;;;10579740;27;20228;-85
2022/08/29 05:16:51;;;;;;;8.02;4.65;;;22.90;99.90;;;;;;10577769;27;20301;-85
2022/08/29 05:21:56;;;;;;;10.63;4.95;;;;;;;;;;10579375;27;20250;-86
2022/08/29 05:26:59;;;;;;;9.07;4.40;;;19.50;99.90;;;;;;10578477;28;20218;-86
2022/08/29 05:32:01;;;;;;;5.95;3.78;;;20.30;99.90;;;;;;10563506;27;20257;-85
2022/08/29 05:37:08;;;;;;;7.53;4.65;;;21.20;99.90;;;;;;10580380;28;20297;-85
2022/08/29 05:42:11;;;;;;;8.88;3.95;;;21.50;99.90;;;;;;10580114;28;20539;-85
2022/08/29 05:47:17;;;;;;;9.30;4.40;;;20.00;99.90;;;;;;10578295;27;20266;-85
2022/08/29 05:52:20;;;;;;;6.93;4.13;;;20.80;99.90;;;;;;10593230;27;20192;-86
2022/08/29 05:57:23;;;;;;;13.82;4.60;;;20.90;99.90;;;;;;10620336;27;20212;-84
2022/08/29 06:02:25;;;;;;;9.55;5.60;;;20.60;99.90;;;;;;10591897;27;20224;-84
2022/08/29 06:07:29;;;;;;;8.57;4.20;;;20.40;99.90;;;;;;10576487;28;20224;-83
2022/08/29 06:12:32;;;;;;;15.10;4.93;;;21.20;99.90;;;;;;10571192;28;20626;-84
2022/08/29 06:17:36;;;;;;;9.05;3.33;;;21.60;99.90;;;;;;10582011;27;20309;-83
2022/08/29 06:22:39;;;;;;;11.48;4.38;;;21.70;99.90;;;;;;10578945;28;20368;-83
2022/08/29 06:27:42;;;;;;;7.20;4.05;;;22.80;99.90;;;;;;10582751;27;20232;-83
2022/08/29 06:32:44;;;;;;;11.98;4.32;;;22.20;99.90;;;;;;10574803;28;20687;-85
2022/08/29 06:37:46;;;;;;;5.93;4.15;;;22.70;99.90;;;;;;10575131;28;20274;-85
2022/08/29 06:42:49;;;;;;;11.18;4.57;;;22.30;99.90;;;;;;10576651;28;20274;-84
2022/08/29 06:47:52;;;;;;;6.40;3.83;;;19.90;99.90;;;;;;10557089;28;20281;-85
2022/08/29 06:52:54;;;;;;;6.22;3.53;;;22.00;99.90;;;;;;10574163;27;20237;-84
2022/08/29 06:57:57;;;;;;;6.00;3.92;;;22.90;99.90;;;;;;10567556;28;20293;-85
2022/08/29 07:03:01;;;;;;;10.23;3.75;;;23.20;99.90;;;;;;10573970;27;20220;-84
2022/08/29 07:08:03;;;;;;;11.70;4.38;;;22.60;99.90;;;;;;10574321;28;20220;-84
2022/08/29 07:13:06;;;;;;;9.85;3.35;;;19.40;99.90;;;;;;10575943;27;20591;-84
2022/08/29 07:18:08;;;;;;;7.18;3.33;;;22.70;99.90;;;;;;10562267;28;20724;-84
2022/08/29 07:23:11;;;;;;;5.03;3.95;;;23.30;99.90;;;;;;10572899;28;20270;-84
2022/08/29 07:28:13;;;;;;;5.63;3.72;;;23.30;99.90;;;;;;10573820;28;20277;-83
2022/08/29 07:33:16;;;;;;;6.90;3.67;;;22.80;99.90;;;;;;10563412;28;20293;-83
2022/08/29 07:38:20;;;;;;;6.35;3.78;;;22.60;99.90;;;;;;10575353;28;20244;-83
2022/08/29 07:43:22;;;;;;;7.85;3.72;;;22.70;99.90;;;;;;10615426;27;20200;-83
2022/08/29 07:48:29;;;;;;;5.20;3.80;;;22.70;99.90;;;;;;10617788;27;20243;-84
2022/08/29 07:53:31;;;;;;;4.68;3.45;;;22.40;99.90;;;;;;10599347;28;20737;-83
2022/08/29 07:58:35;;;;;;;6.97;3.45;;;22.50;99.90;;;;;;10574790;28;20270;-83
2022/08/29 08:03:37;;;;;;;7.57;4.43;;;23.00;99.90;;;;;;10573263;28;20270;-83
2022/08/29 08:08:40;;;;;;;5.35;3.53;;;21.30;99.90;;;;;;10573362;28;20465;-83
2022/08/29 08:13:43;;;;;;;9.55;3.90;;;22.60;99.90;;;;;;10573033;28;20251;-84
2022/08/29 08:18:46;;;;;;;5.65;4.25;;;22.60;99.90;;;;;;10572146;28;20248;-84
2022/08/29 08:23:49;;;;;;;6.00;3.53;;;22.50;99.90;;;;;;10573206;28;20703;-84
2022/08/29 08:28:52;;;;;;;6.80;3.65;;;22.90;99.90;;;;;;10570010;28;20229;-85
2022/08/29 08:33:56;;;;;;;6.35;3.22;;;21.80;99.90;;;;;;10565038;28;20264;-83
2022/08/29 08:38:59;;;;;;;5.40;3.28;;;22.30;99.90;;;;;;10572852;28;20294;-83
2022/08/29 08:44:14;;;;;;;9.52;3.30;;;22.40;99.90;;;;;;10561204;28;20201;-83
2022/08/29 08:49:31;;;;;;;4.82;3.97;;;22.70;99.90;;;;;;10576905;27;20241;-83
2022/08/29 08:54:51;;;;;;;8.38;3.78;;;23.20;99.90;;;;;;10578121;28;20224;-82
2022/08/29 08:59:59;;;;;;;4.47;3.50;;;22.70;99.90;;;;;;10579441;28;20266;-82
2022/08/29 09:05:28;;;;;;;6.20;3.63;;;23.10;99.90;;;;;;10578926;27;20692;-82
2022/08/29 09:11:02;;;;;;;12.32;3.60;;;23.10;99.90;;;;;;10613295;27;20253;-83
2022/08/29 09:16:13;;;;;;;14.48;3.72;;;22.70;99.90;;;;;;10618085;27;20256;-82
2022/08/29 09:21:20;;;;;;;8.52;2.90;;;22.70;99.90;;;;;;10580482;28;20296;-83
2022/08/29 09:26:43;;;;;;;5.78;3.58;;;22.90;99.90;;;;;;10594039;27;20261;-83
2022/08/29 09:32:04;;;;;;;3.42;2.80;;;22.90;99.90;;;;;;10562362;27;20205;-83
2022/08/29 09:37:24;;;;;;;5.32;3.03;;;23.70;99.90;;;;;;10553224;27;20259;-87
2022/08/29 09:42:34;;;;;;;3.72;3.33;;;22.60;99.90;;;;;;10552861;27;20283;-85
2022/08/29 09:47:37;;;;;;;4.60;3.03;;;22.90;99.90;;;;;;10214332;27;9999853;-85
2022/08/29 09:52:54;;;;;;;7.07;3.75;;;23.30;99.90;;;;;;10577429;28;20746;-85
2022/08/29 09:58:03;;;;;;;5.32;3.28;;;23.00;99.90;;;;;;10574966;28;20260;-85
2022/08/29 10:03:08;;;;;;;5.28;3.28;;;23.30;99.90;;;;;;10576980;28;20247;-85
2022/08/29 10:08:34;;;;;;;7.10;3.40;;;23.10;99.90;;;;;;10571577;28;20233;-85
2022/08/29 10:13:42;;;;;;;5.60;3.08;;;22.50;99.90;;;;;;10532576;28;20279;-84
2022/08/29 10:18:53;;;;;;;7.15;3.00;;;22.60;99.90;;;;;;10599407;27;20255;-84
2022/08/29 10:24:27;;;;;;;4.63;3.10;;;22.30;99.90;;;;;;10594320;27;20228;-84
2022/08/29 10:29:49;;;;;;;9.30;3.15;;;23.30;99.90;;;;;;10597420;27;20244;-83
2022/08/29 10:35:13;;;;;;;4.40;2.00;;;22.80;99.90;;;;;;10607948;27;20260;-83
2022/08/29 10:40:21;;;;;;;6.00;2.30;;;22.40;99.90;;;;;;10616153;27;20901;-85
2022/08/29 10:45:55;;;;;;;4.20;2.90;;;22.70;99.90;;;;;;10614688;27;20235;-84
2022/08/29 10:51:15;;;;;;;4.63;2.63;;;23.40;99.90;;;;;;10573050;27;20692;-83
2022/08/29 10:56:31;;;;;;;2.95;2.55;;;23.10;99.90;;;;;;10577034;27;20240;-83
2022/08/29 11:02:02;;;;;;;6.88;3.47;;;23.30;99.90;;;;;;10558143;28;20680;-83
2022/08/29 11:07:23;;;;;;;6.55;3.17;;;23.00;99.90;;;;;;10576268;28;20262;-81
2022/08/29 11:12:44;;;;;;;6.00;3.15;;;23.20;99.90;;;;;;10607738;27;20574;-82
2022/08/29 11:18:11;;;;;;;5.60;3.08;;;23.70;99.90;;;;;;10588317;27;20256;-82
2022/08/29 11:23:37;;;;;;;6.43;2.58;;;23.70;99.90;;;;;;10566094;28;20236;-82
2022/08/29 11:29:21;;;;;;;4.25;3.13;;;23.50;99.90;;;;;;10575704;28;20228;-82
2022/08/29 11:34:56;;;;;;;8.65;3.60;;;23.30;99.90;;;;;;10520502;28;20636;-82
2022/08/29 11:40:27;;;;;;;7.22;3.58;;;23.00;99.90;;;;;;10571329;28;20252;-83
2022/08/29 11:45:58;;;;;;;5.25;3.17;;;23.30;99.90;;;;;;10604418;27;20236;-82
2022/08/29 11:51:35;;;;;;;3.95;2.83;;;23.50;99.90;;;;;;10573265;28;20285;-82
2022/08/29 11:56:37;;;;;;;4.85;2.90;;;23.40;99.90;;;;;;10540824;28;20326;-82
2022/08/29 12:01:40;;;;;;;5.63;2.90;;;23.60;99.90;;;;;;10532168;28;20233;-82
2022/08/29 12:06:58;;;;;;;9.23;2.60;;;24.00;99.90;;;;;;10566366;28;20244;-82
2022/08/29 12:12:11;;;;;;;5.28;2.75;;;23.40;99.90;;;;;;10577414;28;20912;-84
2022/08/29 12:17:23;;;;;;;3.60;2.80;;;23.60;99.90;;;;;;10572783;28;20248;-84
2022/08/29 12:22:48;;;;;;;4.38;2.40;;;23.70;99.90;;;;;;10579699;27;20718;-81
2022/08/29 12:28:22;;;;;;;5.00;2.85;;;23.40;99.90;;;;;;10581208;28;20244;-83
2022/08/29 12:33:47;;;;;;;5.88;2.80;;;23.70;99.90;;;;;;10574991;28;20314;-83
2022/08/29 12:39:15;;;;;;;4.18;2.05;;;23.20;99.90;;;;;;10617465;27;20796;-82
2022/08/29 12:44:38;;;;;;;7.50;2.70;;;22.90;99.90;;;;;;10581891;27;20209;-83
2022/08/29 12:49:54;;;;;;;4.82;2.72;;;22.90;99.90;;;;;;10579528;28;20293;-84
2022/08/29 12:54:59;;;;;;;4.35;2.40;;;23.00;99.90;;;;;;10575171;28;20220;-85
2022/08/29 13:00:09;;;;;;;7.68;2.78;;;23.20;99.90;;;;;;10619163;27;20255;-82
2022/08/29 13:05:21;;;;;;;7.10;2.85;;;23.30;99.90;;;;;;10618466;27;20200;-85
2022/08/29 13:10:30;;;;;;;7.80;2.72;;;23.10;99.90;;;;;;10622106;27;20274;-83
2022/08/29 13:15:33;;;;;;;4.13;2.25;;;23.10;99.90;;;;;;10581810;27;20259;-83
2022/08/29 13:20:47;;;;;;;5.63;2.55;;;23.10;99.90;;;;;;10566095;28;20313;-82
2022/08/29 13:26:04;;;;;;;3.33;2.47;;;22.80;99.90;;;;;;10578075;27;20273;-82
2022/08/29 13:31:24;;;;;;;4.07;2.15;;;22.90;99.90;;;;;;10621425;27;20212;-83
2022/08/29 13:36:57;;;;;;;3.58;3.10;;;22.90;99.90;;;;;;10580901;27;20803;-83
2022/08/29 13:42:00;;;;;;;5.15;2.90;;;22.90;99.90;;;;;;10566194;28;20209;-81
2022/08/29 13:47:15;;;;;;;5.10;2.65;;;22.60;99.90;;;;;;10589299;27;20738;-82
2022/08/29 13:52:18;;;;;;;6.60;2.80;;;21.70;99.90;;;;;;10556127;27;20204;-81
2022/08/29 13:57:23;;;;;;;3.83;2.42;;;22.20;99.90;;;;;;10579719;28;20248;-81
2022/08/29 14:02:26;;;;;;;9.18;3.28;;;22.10;99.90;;;;;;10577807;28;20209;-81
2022/08/29 14:07:36;;;;;;;5.63;2.95;;;22.40;99.90;;;;;;10572323;28;20266;-81
2022/08/29 14:12:39;;;;;;;4.68;2.40;;;22.50;99.90;;;;;;10537719;28;20232;-81
2022/08/29 14:17:44;;;;;;;4.00;2.47;;;22.50;99.90;;;;;;10535504;28;20269;-81
2022/08/29 14:22:46;;;;;;;5.68;3.50;;;22.70;99.90;;;;;;10535801;28;20186;-81
2022/08/29 14:27:49;;;;;;;2.92;2.65;;;22.90;99.90;;;;;;10536815;28;20255;-82
2022/08/29 14:32:52;;;;;;;7.45;2.92;;;22.80;99.90;;;;;;10547769;28;20769;-82
2022/08/29 14:37:55;;;;;;;8.18;2.75;;;21.50;99.90;;;;;;10560046;28;20252;-82
2022/08/29 14:43:00;;;;;;;4.22;2.30;;;22.00;99.90;;;;;;10577363;28;20225;-82
2022/08/29 14:48:04;;;;;;;2.05;1.88;;;21.30;99.90;;;;;;10544899;28;20694;-82
2022/08/29 14:53:07;;;;;;;5.55;2.28;;;21.50;99.90;;;;;;10534847;28;20689;-82
2022/08/29 14:58:10;;;;;;;3.28;2.60;;;24.70;99.90;;;;;;10567595;27;20256;-83
2022/08/29 15:03:13;;;;;;;6.97;2.33;;;23.70;99.90;;;;;;10574885;28;20258;-83
2022/08/29 15:08:16;;;;;;;4.72;2.28;;;23.70;99.90;;;;;;10576129;28;20226;-82
2022/08/29 15:13:20;;;;;;;2.80;2.50;;;22.10;99.90;;;;;;10570784;28;20304;-83
2022/08/29 15:18:23;;;;;;;3.03;2.50;;;21.50;99.90;;;;;;10542107;28;20276;-83
2022/08/29 15:23:47;;;;;;;3.70;2.30;;;23.50;99.90;;;;;;10552160;28;20259;-84
2022/08/29 15:28:53;;;;;;;2.72;2.53;;;;;;;;;;10548230;28;20229;-87
2022/08/29 15:33:56;;;;;;;3.15;2.20;;;25.40;99.90;;;;;;10532678;28;20222;-88
2022/08/29 15:39:04;;;;;;;5.55;3.90;;;24.80;99.90;;;;;;10539095;28;20301;-85
2022/08/29 15:44:06;;;;;;;2.83;2.53;;;23.20;99.90;;;;;;10576428;28;20224;-82
2022/08/29 15:49:11;;;;;;;4.00;2.55;;;25.60;99.90;;;;;;10563204;28;20240;-83
2022/08/29 15:54:14;;;;;;;2.58;2.38;;;24.60;99.90;;;;;;10541526;28;20235;-81
2022/08/29 15:59:18;;;;;;;3.58;2.75;;;24.30;99.90;;;;;;10542263;28;20380;-82
2022/08/29 16:04:41;;;;;;;6.30;2.78;;;24.40;99.90;;;;;;10559543;28;20293;-83
2022/08/29 16:09:44;;;;;;;5.22;2.47;;;23.50;99.90;;;;;;10544076;28;20290;-83
2022/08/29 16:14:46;;;;;;;9.63;3.35;;;24.00;99.90;;;;;;10539967;28;20225;-83
2022/08/29 16:20:10;;;;;;;4.25;3.28;;;23.90;99.90;;;;;;10550219;28;20252;-82
2022/08/29 16:25:13;;;;;;;4.70;2.75;;;23.40;99.90;;;;;;10550369;28;20243;-81
2022/08/29 16:30:18;;;;;;;10.50;3.03;;;22.10;99.90;;;;;;10568850;28;20250;-81
2022/08/29 16:35:20;;;;;;;5.72;3.30;;;21.30;99.90;;;;;;10552009;28;20271;-81
2022/08/29 16:40:23;;;;;;;30.60;6.30;;;;;;;;;;10523131;28;20253;-81
2022/08/29 16:45:26;;;;;;;5.13;4.05;;;20.70;99.90;;;;;;10539437;28;20225;-81
2022/08/29 16:50:28;;;;;;;7.93;4.05;;;21.30;99.90;;;;;;10541455;28;20251;-81
2022/08/29 16:55:31;;;;;;;6.13;3.03;;;20.60;99.90;;;;;;10539977;28;20229;-82
2022/08/29 17:00:34;;;;;;;8.30;3.25;;;22.40;99.90;;;;;;10546967;28;20282;-81
2022/08/29 17:05:36;;;;;;;5.82;3.38;;;21.90;99.90;;;;;;10548658;28;20258;-81
2022/08/29 17:20:47;;;;;;;4.13;3.00;;;23.10;99.90;;;;;;10564042;28;20252;-82
2022/08/29 17:25:50;;;;;;;5.10;3.22;;;22.70;99.90;;;;;;10549544;27;20296;-82
2022/08/29 17:30:54;;;;;;;3.13;2.63;;;23.70;99.90;;;;;;10560557;28;20229;-84
2022/08/29 17:35:57;;;;;;;2.95;2.65;;;24.60;99.90;;;;;;10537387;28;20271;-83
2022/08/29 17:41:02;;;;;;;2.85;2.58;;;24.80;99.90;;;;;;10538907;28;20256;-82
2022/08/29 17:46:18;;;;;;;5.20;2.53;;;24.10;99.90;;;;;;10567472;28;20197;-83
2022/08/29 17:51:20;;;;;;;5.32;2.53;;;25.10;99.90;;;;;;10551151;28;20235;-82
2022/08/29 17:56:39;;;;;;;2.82;2.37;;;25.50;99.90;;;;;;9872040;27;10021429;-82
2022/08/29 18:01:46;;;;;;;3.20;2.53;;;25.60;99.90;;;;;;10534908;28;20306;-81
2022/08/29 18:06:50;;;;;;;4.75;2.83;;;25.70;99.90;;;;;;10543761;28;20241;-82
2022/08/29 18:11:57;;;;;;;3.83;2.25;;;25.70;99.90;;;;;;10574328;28;20236;-83
2022/08/29 18:16:59;;;;;;;2.40;2.17;;;25.70;99.90;;;;;;10551158;28;20247;-83
2022/08/29 18:22:01;;;;;;;3.67;2.47;;;25.90;99.90;;;;;;10534624;28;20652;-82
2022/08/29 18:27:04;;;;;;;3.38;2.20;;;25.90;99.90;;;;;;10570335;28;20674;-82
2022/08/29 18:32:07;;;;;;;4.72;3.03;;;26.10;99.90;;;;;;10535929;28;20963;-83
2022/08/29 18:37:11;;;;;;;3.55;2.83;;;25.80;99.90;;;;;;10531734;28;20253;-82
2022/08/29 18:42:14;;;;;;;2.78;2.25;;;25.80;99.90;;;;;;10567513;28;20696;-82
2022/08/29 18:47:36;;;;;;;3.63;2.40;;;25.80;99.90;;;;;;10531671;28;20229;-82
2022/08/29 18:52:39;;;;;;;4.00;2.63;;;25.80;99.90;;;;;;10554822;28;20280;-83
2022/08/29 18:57:43;;;;;;;3.10;2.80;;;25.40;99.90;;;;;;10590427;27;20313;-82
2022/08/29 19:02:45;;;;;;;3.58;2.80;;;25.60;99.90;;;;;;10589014;27;20623;-81
2022/08/29 19:07:48;;;;;;;4.00;2.95;;;25.70;99.90;;;;;;10563621;27;20294;-81
2022/08/29 19:12:52;;;;;;;2.85;2.65;;;25.80;99.90;;;;;;10571923;28;20624;-81
2022/08/29 19:17:55;;;;;;;2.58;2.38;;;25.40;99.90;;;;;;10547360;28;20287;-82
2022/08/29 19:22:58;;;;;;;3.80;2.88;;;25.70;99.90;;;;;;10534583;28;20220;-82
2022/08/29 19:28:01;;;;;;;3.50;2.58;;;25.30;99.90;;;;;;10570708;28;20224;-82
2022/08/29 19:33:08;;;;;;;3.80;2.67;;;25.60;99.90;;;;;;10530587;28;20640;-82
2022/08/29 19:38:11;;;;;;;3.42;3.13;;;25.10;99.90;;;;;;10531292;28;20198;-82
2022/08/29 19:43:14;;;;;;;4.10;2.65;;;25.10;99.90;;;;;;10545947;28;20232;-81
2022/08/29 19:48:19;;;;;;;2.97;2.55;;;25.10;99.90;;;;;;10568737;28;20285;-82
2022/08/29 19:53:22;;;;;;;2.50;2.30;;;25.20;99.90;;;;;;10566343;28;20224;-82
2022/08/29 19:58:28;;;;;;;3.42;2.70;;;25.00;99.90;;;;;;10576468;28;20697;-82
2022/08/29 20:03:36;;;;;;;2.92;2.35;;;25.10;99.90;;;;;;10538216;28;20233;-82
2022/08/29 20:08:41;;;;;;;3.78;2.95;;;25.60;99.90;;;;;;10539991;28;20589;-83
2022/08/29 20:13:45;;;;;;;3.70;2.40;;;25.50;99.90;;;;;;10536143;28;20679;-83
2022/08/29 20:18:52;;;;;;;2.70;2.50;;;25.70;99.90;;;;;;10542141;28;20282;-83
2022/08/29 20:23:56;;;;;;;3.08;2.60;;;25.70;99.90;;;;;;10542670;28;20222;-83
2022/08/29 20:29:01;;;;;;;2.88;2.67;;;25.70;99.90;;;;;;10560999;28;20777;-84
2022/08/29 20:34:04;;;;;;;3.25;2.95;;;25.70;99.90;;;;;;10574050;28;20930;-83
2022/08/29 20:39:09;;;;;;;2.13;2.00;;;25.60;99.90;;;;;;10585577;27;20724;-86
2022/08/29 20:44:16;;;;;;;2.97;2.78;;;25.50;99.90;;;;;;10567951;28;20222;-85
2022/08/29 20:49:22;;;;;;;3.80;2.72;;;25.50;99.90;;;;;;10566266;28;20619;-84
2022/08/29 20:54:25;;;;;;;3.72;3.00;;;25.50;99.90;;;;;;10554128;28;20258;-83
2022/08/29 20:59:27;;;;;;;3.92;2.78;;;25.40;99.90;;;;;;10539284;28;20282;-82
2022/08/29 21:09:57;;;;;;;3.78;3.13;;;25.40;99.90;;;;;;10550577;28;20247;-82
2022/08/29 21:15:03;;;;;;;3.00;2.80;;;25.30;99.90;;;;;;10544306;28;20266;-82
2022/08/29 21:20:06;;;;;;;3.35;3.05;;;25.30;99.90;;;;;;10575201;28;20782;-82
2022/08/29 21:25:09;;;;;;;2.70;2.42;;;25.20;99.90;;;;;;10559981;28;20259;-82
2022/08/29 21:30:12;;;;;;;3.08;2.78;;;25.20;99.90;;;;;;10559075;28;20201;-82
2022/08/29 21:35:15;;;;;;;2.83;2.60;;;25.10;99.90;;;;;;10561998;28;20305;-83
2022/08/29 21:40:24;;;;;;;2.78;2.58;;;25.20;99.90;;;;;;10578451;28;20286;-83
2022/08/29 21:45:28;;;;;;;3.20;2.90;;;25.20;99.90;;;;;;10565608;27;20228;-83
2022/08/29 21:50:30;;;;;;;2.63;2.42;;;25.10;99.90;;;;;;10539832;28;20233;-84
2022/08/29 21:55:33;;;;;;;3.33;3.03;;;25.10;99.90;;;;;;10551355;28;20627;-83
2022/08/29 22:00:39;;;;;;;3.15;2.88;;;25.10;99.90;;;;;;10549543;28;20305;-84
2022/08/29 22:05:42;;;;;;;3.17;2.88;;;25.10;99.90;;;;;;10567789;28;20241;-83
2022/08/29 22:10:47;;;;;;;4.53;2.75;;;25.10;99.90;;;;;;10579407;28;20236;-84
2022/08/29 22:21:10;;;;;;;3.35;3.05;;;25.00;99.90;;;;;;10538851;28;20703;-84
2022/08/29 22:26:16;;;;;;;2.67;2.47;;;25.00;99.90;;;;;;10534927;28;20205;-83
2022/08/29 22:31:19;;;;;;;6.55;3.33;;;25.00;99.90;;;;;;10538491;28;20263;-84
2022/08/29 22:36:22;;;;;;;3.97;2.58;;;25.00;99.90;;;;;;10551090;28;20265;-83
2022/08/29 22:41:26;;;;;;;2.60;2.40;;;24.90;99.90;;;;;;10535019;28;20638;-84
2022/08/29 22:46:28;;;;;;;3.42;3.13;;;24.90;99.90;;;;;;10534693;28;20202;-83
2022/08/29 22:51:31;;;;;;;2.67;2.45;;;24.90;99.90;;;;;;10550610;28;20229;-84
2022/08/29 22:56:36;;;;;;;3.83;3.30;;;25.00;99.90;;;;;;10561499;28;20254;-84
2022/08/29 23:01:41;;;;;;;2.97;2.78;;;24.80;99.90;;;;;;10533659;28;20261;-84
2022/08/29 23:06:44;;;;;;;3.00;2.60;;;24.90;99.90;;;;;;10533524;28;20229;-82
2022/08/29 23:11:49;;;;;;;3.42;2.70;;;24.90;99.90;;;;;;10540019;28;20237;-83
2022/08/29 23:16:51;;;;;;;2.92;2.72;;;24.90;99.90;;;;;;10533713;28;20255;-83
2022/08/29 23:21:54;;;;;;;2.75;2.55;;;24.90;99.90;;;;;;10551295;28;20274;-83
2022/08/29 23:26:58;;;;;;;3.10;2.75;;;24.80;99.90;;;;;;10532272;28;20230;-83
2022/08/29 23:32:02;;;;;;;2.45;2.25;;;24.70;99.90;;;;;;10542035;28;20229;-84
2022/08/29 23:37:04;;;;;;;3.15;2.85;;;24.80;99.90;;;;;;10533319;28;20257;-84
2022/08/29 23:42:07;;;;;;;3.60;3.13;;;24.80;99.90;;;;;;10557840;28;20248;-84
2022/08/29 23:47:09;;;;;;;2.88;2.65;;;24.70;99.90;;;;;;10574952;28;20764;-84
2022/08/29 23:52:12;;;;;;;3.13;2.83;;;24.80;99.90;;;;;;10550026;28;20602;-84
2022/08/29 23:57:15;;;;;;;3.50;3.20;;;24.80;99.90;;;;;;10532227;28;20229;-84
